• Join FlightAware (Why Join?)
  • Login
  • US Flag 
12:23PM EDT


 

Airport Tracker/Info


-or-


 

Live Flight TrackerFlight Track Log ✈ TYR605 ✈ 16-Jul-2013 ✈ LOWW / VIE - UUDD / DME

Flight Track Log - Related Links

Times and Time Zones

All times are in EDT time to prevent confusion due to time zone crossing. See the TYR605 flight status page for this flight to view local times or setup timezone preferences in your user account.

Time Position Orientation Groundspeed Altitude Reporting Facility
EDT Latitude Longitude Course Direction KTS MPH feet Rate Location/Type
03:12PM 48.3167 16.9821 53° Northeast  Level Estimated
03:13PM 48.3851 17.1203 53° Northeast  Level Estimated
03:14PM 48.4534 17.2589 53° Northeast  Level Estimated
03:15PM 48.5216 17.3978 53° Northeast  Level Estimated
03:16PM 48.5895 17.5372 54° Northeast  Level Estimated
03:17PM 48.6573 17.6769 54° Northeast  Level Estimated
03:18PM 48.7250 17.8169 54° Northeast  Level Estimated
03:19PM 48.7924 17.9574 54° Northeast  Level Estimated
03:20PM 48.8597 18.0982 54° Northeast  Level Estimated
03:21PM 48.9268 18.2394 54° Northeast  Level Estimated
03:22PM 48.9938 18.3810 54° Northeast  Level Estimated
03:23PM 49.0606 18.5230 54° Northeast  Level Estimated
03:24PM 49.1271 18.6653 54° Northeast  Level Estimated
03:25PM 49.1936 18.8081 55° Northeast  Level Estimated
03:26PM 49.2598 18.9512 55° Northeast  Level Estimated
03:27PM 49.3259 19.0947 55° Northeast  Level Estimated
03:28PM 49.3918 19.2386 55° Northeast  Level Estimated
03:29PM 49.4575 19.3828 55° Northeast  Level Estimated
03:30PM 49.5230 19.5275 55° Northeast  Level Estimated
03:31PM 49.5883 19.6725 55° Northeast  Level Estimated
03:32PM 49.6535 19.8179 55° Northeast  Level Estimated
03:33PM 49.7185 19.9638 55° Northeast  Level Estimated
03:34PM 49.7833 20.1100 55° Northeast  Level Estimated
03:35PM 49.8479 20.2566 56° Northeast  Level Estimated
03:36PM 49.9123 20.4036 56° Northeast  Level Estimated
03:37PM 49.9766 20.5510 56° Northeast  Level Estimated
03:38PM 50.0406 20.6987 56° Northeast  Level Estimated
03:39PM 50.1045 20.8469 56° Northeast  Level Estimated
03:40PM 50.1682 20.9955 56° Northeast  Level Estimated
03:41PM 50.2317 21.1445 56° Northeast  Level Estimated
03:42PM 50.2950 21.2938 56° Northeast  Level Estimated
03:43PM 50.3581 21.4436 57° Northeast  Level Estimated
03:44PM 50.4210 21.5938 57° Northeast  Level Estimated
03:45PM 50.4837 21.7443 57° Northeast  Level Estimated
03:46PM 50.5462 21.8953 57° Northeast  Level Estimated
03:47PM 50.6086 22.0466 57° Northeast  Level Estimated
03:48PM 50.6707 22.1984 57° Northeast  Level Estimated
03:49PM 50.7326 22.3505 57° Northeast  Level Estimated
03:50PM 50.7944 22.5031 57° Northeast  Level Estimated
03:51PM 50.8559 22.6561 57° Northeast  Level Estimated
03:52PM 50.9173 22.8095 58° Northeast  Level Estimated
03:53PM 50.9784 22.9632 58° Northeast  Level Estimated
03:54PM 51.0393 23.1174 58° Northeast  Level Estimated
03:55PM 51.1000 23.2720 58° Northeast  Level Estimated
03:56PM 51.1606 23.4270 58° Northeast  Level Estimated
03:57PM 51.2209 23.5824 58° Northeast  Level Estimated
03:58PM 51.2810 23.7382 58° Northeast  Level Estimated
03:59PM 51.3409 23.8944 58° Northeast  Level Estimated
04:00PM 51.4006 24.0510 59° Northeast  Level Estimated
04:01PM 51.4601 24.2080 59° Northeast  Level Estimated
04:02PM 51.5194 24.3655 59° Northeast  Level Estimated
04:03PM 51.5784 24.5233 59° Northeast  Level Estimated
04:04PM 51.6373 24.6816 59° Northeast  Level Estimated
04:05PM 51.6959 24.8403 59° Northeast  Level Estimated
04:06PM 51.7544 24.9993 59° Northeast  Level Estimated
04:07PM 51.8126 25.1588 59° Northeast  Level Estimated
04:08PM 51.8706 25.3187 60° Northeast  Level Estimated
04:09PM 51.9283 25.4790 60° Northeast  Level Estimated
04:10PM 51.9859 25.6398 60° Northeast  Level Estimated
04:11PM 52.0433 25.8009 60° Northeast  Level Estimated
04:12PM 52.1004 25.9625 60° Northeast  Level Estimated
04:13PM 52.1573 26.1244 60° Northeast  Level Estimated
04:14PM 52.2140 26.2868 60° Northeast  Level Estimated
04:15PM 52.2704 26.4496 60° Northeast  Level Estimated
04:16PM 52.3266 26.6128 61° Northeast  Level Estimated
04:17PM 52.3826 26.7764 61° Northeast  Level Estimated
04:18PM 52.4384 26.9405 61° Northeast  Level Estimated
04:19PM 52.4940 27.1049 61° Northeast  Level Estimated
04:20PM 52.5493 27.2698 61° Northeast  Level Estimated
04:21PM 52.6044 27.4351 61° Northeast  Level Estimated
04:22PM 52.6592 27.6008 61° Northeast  Level Estimated
04:23PM 52.7139 27.7669 61° Northeast  Level Estimated
04:24PM 52.7683 27.9334 62° Northeast  Level Estimated
04:25PM 52.8224 28.1003 62° Northeast  Level Estimated
04:26PM 52.8764 28.2677 62° Northeast  Level Estimated
04:27PM 52.9300 28.4355 62° Northeast  Level Estimated
04:28PM 52.9835 28.6037 62° Northeast  Level Estimated
04:29PM 53.0367 28.7723 62° Northeast  Level Estimated
04:30PM 53.0897 28.9413 62° Northeast  Level Estimated
04:31PM 53.1424 29.1107 63° Northeast  Level Estimated
04:32PM 53.1949 29.2806 63° Northeast  Level Estimated
04:33PM 53.2472 29.4509 63° Northeast  Level Estimated
04:34PM 53.2992 29.6216 63° Northeast  Level Estimated
04:35PM 53.3510 29.7927 63° Northeast  Level Estimated
04:36PM 53.4025 29.9642 63° Northeast  Level Estimated
04:37PM 53.4538 30.1361 63° Northeast  Level Estimated
04:38PM 53.5048 30.3085 63° Northeast  Level Estimated
04:39PM 53.5556 30.4812 64° Northeast  Level Estimated
04:40PM 53.6061 30.6544 64° Northeast  Level Estimated
04:41PM 53.6564 30.8280 64° Northeast  Level Estimated
04:42PM 53.7064 31.0020 64° Northeast  Level Estimated
04:43PM 53.7562 31.1764 64° Northeast  Level Estimated
04:44PM 53.8057 31.3512 64° Northeast  Level Estimated
04:45PM 53.8550 31.5265 64° Northeast  Level Estimated
04:46PM 53.9040 31.7021 65° Northeast  Level Estimated
04:47PM 53.9527 31.8782 65° Northeast  Level Estimated
04:48PM 54.0012 32.0547 65° Northeast  Level Estimated
04:49PM 54.0495 32.2315 65° Northeast  Level Estimated
04:50PM 54.0975 32.4089 65° Northeast  Level Estimated
04:51PM 54.1452 32.5866 65° Northeast  Level Estimated
04:52PM 54.1926 32.7647 65° Northeast  Level Estimated
04:53PM 54.2398 32.9432 66° East  Level Estimated
04:54PM 54.2867 33.1221 66° East  Level Estimated
04:55PM 54.3334 33.3015 66° East  Level Estimated
04:56PM 54.3798 33.4812 66° East  Level Estimated
04:57PM 54.4259 33.6614 66° East  Level Estimated
04:58PM 54.4718 33.8419 66° East  Level Estimated
04:59PM 54.5173 34.0229 66° East  Level Estimated
05:00PM 54.5627 34.2042 67° East  Level Estimated
05:01PM 54.6077 34.3860 67° East  Level Estimated
05:02PM 54.6525 34.5681 67° East  Level Estimated
05:03PM 54.6970 34.7507 67° East  Level Estimated
05:04PM 54.7412 34.9337 67° East  Level Estimated
05:05PM 54.7851 35.1171 67° East  Level Estimated
05:06PM 54.8288 35.3008 68° East  Level Estimated
05:07PM 54.8722 35.4850 68° East  Level Estimated
05:08PM 54.9153 35.6695 68° East  Level Estimated
05:09PM 54.9581 35.8545 68° East  Level Estimated
05:10PM 55.0007 36.0398 68° East  Level Estimated
05:11PM 55.0430 36.2255 68° East  Level Estimated
05:12PM 55.0850 36.4117 68° East  Level Estimated
05:13PM 55.1267 36.5982 69° East  Level Estimated
05:14PM 55.1681 36.7851 69° East  Level Estimated
05:15PM 55.2092 36.9724 69° East  Level Estimated
05:16PM 55.2500 37.1601 69° East  Level Estimated
05:17PM 55.2906 37.3481 69° East  Level Estimated
05:18PM 55.3309 37.5366 69° East  Level Estimated
05:19PM 55.3708 37.7254 69° East  Level Estimated
05:20PM 55.4088 37.9063 70° East  Level Estimated
05:21PM 55.4088 37.9063 150° Southeast  Level Estimated
05:22PM 55.4088 37.9063 150° Southeast  Level Estimated
05:23PM 55.4088 37.9063 150° Southeast  Level Estimated
05:24PM 55.4088 37.9063 150° Southeast  Level Estimated
05:25PM 55.4088 37.9063 150° Southeast  Level Estimated
05:26PM 55.4088 37.9063 150° Southeast  Level Estimated
05:27PM 55.4088 37.9063 150° Southeast  Level Estimated
05:28PM 55.4088 37.9063 150° Southeast  Level Estimated
05:29PM 55.4088 37.9063 150° Southeast  Level Estimated
05:30PM 55.4088 37.9063 150° Southeast  Level Estimated
05:31PM 55.4088 37.9063 150° Southeast  Level Estimated
05:32PM 55.4088 37.9063 150° Southeast  Level Estimated
05:33PM 55.4088 37.9063 150° Southeast  Level Estimated
05:34PM 55.4088 37.9063 150° Southeast  Level Estimated
05:35PM 55.4088 37.9063 150° Southeast  Level Estimated
05:36PM 55.4088 37.9063 150° Southeast  Level Estimated